Time;durP1;ratioP1;P1;durP2;ratioP2;P2;SDS_P1;SDS_P2;PMS_P1;PMS_P2;Temp;Humidity;BMP_temperature;BMP_pressure;BME280_temperature;BME280_humidity;BME280_pressure;Samples;Min_cycle;Max_cycle;Signal;HPM_P1;HPM_P2
2023/07/02 00:01:47;;;;;;;0.93;0.82;;;17.50;99.90;17.60;99510.00;;;;4968264;28;93051;-67
2023/07/02 00:04:16;;;;;;;0.70;0.60;;;17.50;99.90;17.70;99510.00;;;;4953111;28;93712;-67
2023/07/02 00:06:43;;;;;;;0.63;0.60;;;17.50;99.90;17.70;99509.00;;;;4972089;28;93882;-68
2023/07/02 00:09:10;;;;;;;0.80;0.80;;;17.60;99.90;17.70;99513.00;;;;4972635;28;93116;-67
2023/07/02 00:11:38;;;;;;;1.23;0.80;;;17.60;99.90;17.80;99511.00;;;;4970097;28;94028;-67
2023/07/02 00:14:05;;;;;;;1.05;0.95;;;17.70;99.90;17.80;99512.00;;;;4968109;28;92806;-68
2023/07/02 00:16:31;;;;;;;1.52;0.80;;;17.70;99.90;17.80;99514.00;;;;4967649;28;94103;-68
2023/07/02 00:18:57;;;;;;;4.65;1.20;;;17.70;99.90;17.90;99506.00;;;;4969367;28;93897;-67
2023/07/02 00:21:25;;;;;;;1.40;1.10;;;17.70;99.90;17.90;99513.00;;;;4968644;28;92201;-67
2023/07/02 00:23:51;;;;;;;0.88;0.80;;;17.80;99.90;17.90;99511.00;;;;4971590;28;92874;-68
2023/07/02 00:26:17;;;;;;;1.52;1.20;;;17.80;99.90;17.90;99506.00;;;;4965789;28;92979;-67
2023/07/02 00:28:42;;;;;;;0.85;0.73;;;17.80;99.90;17.90;99513.00;;;;4969076;28;93766;-67
2023/07/02 00:31:08;;;;;;;1.25;0.90;;;17.80;99.90;17.90;99515.00;;;;4968178;28;111710;-67
2023/07/02 00:33:34;;;;;;;1.70;0.95;;;17.80;99.90;18.00;99517.00;;;;4972786;28;92768;-67
2023/07/02 00:36:00;;;;;;;3.78;1.02;;;17.80;99.90;18.00;99516.00;;;;4970233;28;122017;-67
2023/07/02 00:38:26;;;;;;;0.80;0.80;;;17.80;99.90;18.00;99518.00;;;;4969095;28;92960;-67
2023/07/02 00:40:51;;;;;;;1.58;0.60;;;17.90;99.90;18.00;99514.00;;;;4973260;28;110807;-67
2023/07/02 00:43:17;;;;;;;3.58;0.98;;;17.90;99.90;18.00;99517.00;;;;4975347;28;108884;-67
2023/07/02 00:45:45;;;;;;;2.10;1.38;;;17.90;99.90;18.00;99510.00;;;;4976947;28;121372;-67
2023/07/02 00:48:11;;;;;;;0.90;0.90;;;17.90;99.90;18.00;99501.00;;;;4972937;28;92963;-66
2023/07/02 00:50:37;;;;;;;0.80;0.80;;;17.90;99.90;18.00;99512.00;;;;4978817;28;99097;-67
2023/07/02 00:53:03;;;;;;;0.65;0.65;;;17.90;99.90;18.00;99498.00;;;;4973986;28;93789;-68
2023/07/02 00:55:28;;;;;;;1.38;0.70;;;17.90;99.90;18.00;99501.00;;;;4975292;28;121678;-67
2023/07/02 00:57:56;;;;;;;1.02;0.93;;;17.90;99.90;18.10;99509.00;;;;4969520;28;114679;-67
2023/07/02 01:00:22;;;;;;;1.65;1.27;;;17.90;99.90;18.10;99498.00;;;;4971460;28;92793;-67
2023/07/02 01:02:58;;;;;;;1.42;0.60;;;17.90;99.90;18.10;99500.00;;;;4974904;28;99402;-66
2023/07/02 01:05:35;;;;;;;1.25;0.90;;;17.70;99.90;18.10;99500.00;;;;4955815;28;95627;-67
2023/07/02 01:08:03;;;;;;;0.98;0.82;;;17.90;99.90;18.10;99503.00;;;;4953069;28;93855;-67
2023/07/02 01:10:30;;;;;;;1.42;1.20;;;17.90;99.90;18.10;99495.00;;;;4954848;28;92063;-67
2023/07/02 01:13:01;;;;;;;0.70;0.70;;;17.90;99.90;18.10;99500.00;;;;4942256;28;97528;-66
2023/07/02 01:15:27;;;;;;;1.17;0.80;;;17.90;99.90;18.00;99507.00;;;;4938079;28;93008;-66
2023/07/02 01:17:54;;;;;;;0.85;0.70;;;17.90;99.90;18.10;99501.00;;;;4932739;28;122607;-67
2023/07/02 01:20:20;;;;;;;2.10;1.00;;;17.90;99.90;18.10;99507.00;;;;4948745;28;93113;-67
2023/07/02 01:22:51;;;;;;;1.27;1.17;;;17.90;99.90;18.10;99508.00;;;;4942883;28;92959;-67
2023/07/02 01:25:17;;;;;;;0.63;0.63;;;17.90;99.90;18.00;99503.00;;;;4948356;28;94452;-66
2023/07/02 01:27:43;;;;;;;1.83;0.90;;;17.90;99.90;18.10;99510.00;;;;4932995;28;105005;-68
2023/07/02 01:30:10;;;;;;;1.35;1.13;;;17.90;99.90;18.10;99501.00;;;;4920246;28;101466;-65
2023/07/02 01:32:37;;;;;;;1.25;0.70;;;18.00;99.90;18.10;99505.00;;;;4949348;28;94246;-67
2023/07/02 01:35:03;;;;;;;1.27;1.00;;;18.00;99.90;18.10;99511.00;;;;4947259;28;93116;-67
2023/07/02 01:37:37;;;;;;;1.45;0.77;;;18.00;99.90;18.10;99510.00;;;;4949274;28;113137;-66
2023/07/02 01:40:06;;;;;;;1.40;0.98;;;18.00;99.90;18.10;99513.00;;;;4953133;28;93113;-66
2023/07/02 01:42:32;;;;;;;1.23;0.85;;;18.00;99.90;18.20;99511.00;;;;4953212;28;98016;-66
2023/07/02 01:44:58;;;;;;;0.65;0.65;;;18.00;99.90;18.20;99504.00;;;;4948406;28;94292;-66
2023/07/02 01:47:24;;;;;;;2.00;0.90;;;18.00;99.90;18.20;99509.00;;;;4948455;28;122216;-65
2023/07/02 01:49:50;;;;;;;1.25;0.73;;;18.10;99.90;18.20;99498.00;;;;4949902;28;92972;-66
2023/07/02 01:52:16;;;;;;;0.70;0.70;;;18.10;99.90;18.20;99508.00;;;;4948965;28;93800;-67
2023/07/02 01:54:42;;;;;;;0.73;0.73;;;18.10;99.90;18.20;99501.00;;;;4955208;28;93317;-66
2023/07/02 01:57:08;;;;;;;1.08;0.90;;;18.10;99.90;18.30;99513.00;;;;4949080;28;93492;-66
2023/07/02 01:59:34;;;;;;;0.90;0.73;;;18.10;99.90;18.30;99511.00;;;;4948777;28;92273;-65
2023/07/02 02:02:00;;;;;;;0.88;0.88;;;18.20;99.90;18.30;99506.00;;;;4955161;28;94561;-66
2023/07/02 02:04:26;;;;;;;0.82;0.70;;;18.20;99.90;18.30;99517.00;;;;4948206;28;107616;-66
2023/07/02 02:06:52;;;;;;;1.63;0.85;;;18.20;99.90;18.30;99514.00;;;;4958108;28;93846;-66
2023/07/02 02:09:18;;;;;;;1.00;0.90;;;18.20;99.90;18.30;99509.00;;;;4971754;28;92868;-66
2023/07/02 02:11:50;;;;;;;1.65;0.65;;;18.20;99.90;18.40;99514.00;;;;4971392;28;92850;-66
2023/07/02 02:14:16;;;;;;;0.43;0.43;;;18.20;99.90;18.30;99509.00;;;;4971090;28;93128;-65
2023/07/02 02:16:45;;;;;;;0.60;0.60;;;18.20;99.90;18.40;99512.00;;;;4971597;28;93227;-66
2023/07/02 02:19:11;;;;;;;1.27;1.05;;;18.20;99.90;18.40;99509.00;;;;4969777;28;92782;-66
2023/07/02 02:21:37;;;;;;;5.32;0.63;;;18.20;99.90;18.40;99510.00;;;;4972858;28;93240;-66
2023/07/02 02:24:03;;;;;;;0.93;0.70;;;18.20;99.90;18.30;99517.00;;;;4970211;28;122137;-67
2023/07/02 02:26:29;;;;;;;1.60;0.80;;;18.20;99.90;18.40;99517.00;;;;4971500;28;92990;-66
2023/07/02 02:28:55;;;;;;;1.48;0.93;;;18.20;99.90;18.40;99521.00;;;;4968044;28;110252;-66
2023/07/02 02:31:21;;;;;;;1.35;0.63;;;18.20;99.90;18.40;99528.00;;;;4970323;28;96535;-65
2023/07/02 02:33:46;;;;;;;0.85;0.80;;;18.30;99.90;18.40;99524.00;;;;4967648;28;123721;-66
2023/07/02 02:36:12;;;;;;;0.75;0.75;;;18.20;99.90;18.30;99526.00;;;;4969063;28;102292;-66
2023/07/02 02:38:38;;;;;;;0.80;0.80;;;18.20;99.90;18.40;99528.00;;;;4969552;28;92916;-67
2023/07/02 02:41:04;;;;;;;0.60;0.60;;;18.20;99.90;18.30;99538.00;;;;4974889;28;92647;-66
2023/07/02 02:43:29;;;;;;;1.33;1.05;;;18.20;99.90;18.30;99528.00;;;;4954781;28;93097;-66
2023/07/02 02:45:55;;;;;;;1.23;0.80;;;18.20;99.90;18.30;99537.00;;;;4966409;28;123531;-66
2023/07/02 02:48:22;;;;;;;3.47;0.45;;;18.20;99.90;18.30;99527.00;;;;4968159;28;109777;-66
2023/07/02 02:50:48;;;;;;;1.75;0.50;;;18.20;99.90;18.30;99539.00;;;;4967805;28;92841;-66
2023/07/02 02:53:14;;;;;;;0.80;0.40;;;18.20;99.90;18.30;99539.00;;;;4967157;28;123755;-66
2023/07/02 02:55:39;;;;;;;2.63;1.00;;;18.20;99.90;18.20;99536.00;;;;4969700;28;122986;-66
2023/07/02 02:58:05;;;;;;;0.70;0.70;;;18.10;99.90;18.10;99546.00;;;;4973138;28;108431;-67
2023/07/02 03:00:31;;;;;;;2.28;1.02;;;18.00;99.90;17.90;99545.00;;;;4970205;28;110129;-67
2023/07/02 03:02:56;;;;;;;1.00;0.90;;;17.90;99.90;17.80;99550.00;;;;4973090;28;123005;-67
2023/07/02 03:05:22;;;;;;;1.48;1.05;;;17.80;99.90;17.70;99546.00;;;;4970078;28;121008;-66
2023/07/02 03:07:49;;;;;;;0.75;0.75;;;17.70;99.90;17.60;99553.00;;;;4974170;28;92743;-67
2023/07/02 03:10:15;;;;;;;1.45;0.95;;;17.50;99.90;17.50;99550.00;;;;4971940;28;92978;-68
2023/07/02 03:12:41;;;;;;;1.40;1.05;;;17.40;99.90;17.40;99537.00;;;;4967594;28;122321;-68
2023/07/02 03:15:08;;;;;;;3.22;1.08;;;17.40;99.90;17.40;99539.00;;;;4968791;28;121153;-67
2023/07/02 03:17:33;;;;;;;0.52;0.52;;;17.30;99.90;17.30;99549.00;;;;4967942;28;92987;-67
2023/07/02 03:19:59;;;;;;;1.05;0.95;;;17.30;99.90;17.30;99551.00;;;;4970896;28;93957;-66
2023/07/02 03:22:25;;;;;;;1.77;1.23;;;17.20;99.90;17.30;99546.00;;;;4970925;28;122810;-67
2023/07/02 03:24:50;;;;;;;1.13;0.68;;;17.20;99.90;17.30;99536.00;;;;4968607;28;121987;-66
2023/07/02 03:27:16;;;;;;;0.52;0.47;;;17.20;99.90;17.20;99544.00;;;;4968286;28;110279;-66
2023/07/02 03:29:42;;;;;;;1.70;1.00;;;17.20;99.90;17.20;99550.00;;;;4970082;28;109072;-65
2023/07/02 03:32:35;;;;;;;1.40;1.13;;;17.10;99.90;17.20;99548.00;;;;4966674;28;122645;-66
2023/07/02 03:35:01;;;;;;;0.82;0.82;;;17.20;99.90;17.20;99556.00;;;;4968362;28;120606;-66
2023/07/02 03:37:26;;;;;;;1.25;0.90;;;17.10;99.90;17.20;99556.00;;;;4967335;28;111332;-66
2023/07/02 03:39:52;;;;;;;0.90;0.90;;;17.10;99.90;17.20;99553.00;;;;4972930;28;108325;-66
2023/07/02 03:42:18;;;;;;;3.72;1.38;;;17.10;99.90;17.20;99570.00;;;;4968494;28;123004;-66
2023/07/02 03:44:43;;;;;;;2.35;1.15;;;17.10;99.90;17.20;99568.00;;;;4967812;28;122495;-66
2023/07/02 03:47:09;;;;;;;0.47;0.47;;;17.10;99.90;17.20;99552.00;;;;4972551;28;101441;-66
2023/07/02 03:49:35;;;;;;;1.80;1.13;;;17.10;99.90;17.20;99556.00;;;;4970306;28;93113;-66
2023/07/02 03:52:00;;;;;;;3.63;1.02;;;17.10;99.90;17.20;99566.00;;;;4966615;28;123820;-66
2023/07/02 03:54:26;;;;;;;1.35;1.25;;;17.10;99.90;17.20;99570.00;;;;4965121;28;121291;-66
2023/07/02 03:56:52;;;;;;;1.08;0.80;;;17.10;99.90;17.10;99585.00;;;;4967275;28;111570;-65
2023/07/02 03:59:19;;;;;;;1.13;0.90;;;17.00;99.90;17.10;99587.00;;;;4969580;28;93087;-66
2023/07/02 04:01:44;;;;;;;0.70;0.70;;;17.00;99.90;17.10;99590.00;;;;4970737;28;122287;-66
2023/07/02 04:04:11;;;;;;;2.15;1.00;;;17.00;99.90;17.10;99588.00;;;;4968069;28;121602;-67
2023/07/02 04:06:37;;;;;;;0.95;0.88;;;17.00;99.90;17.00;99595.00;;;;4967924;28;94590;-66
2023/07/02 04:09:04;;;;;;;1.00;0.88;;;17.00;99.90;17.00;99588.00;;;;4967369;28;108781;-66
2023/07/02 04:11:29;;;;;;;2.25;1.38;;;16.90;99.90;17.00;99591.00;;;;4968293;28;93196;-65
2023/07/02 04:13:55;;;;;;;1.20;1.10;;;16.90;99.90;17.00;99601.00;;;;4971367;28;122828;-66
2023/07/02 04:16:21;;;;;;;1.17;1.00;;;16.90;99.90;17.00;99606.00;;;;4970442;28;110442;-66
2023/07/02 04:18:46;;;;;;;0.68;0.68;;;16.90;99.90;17.00;99604.00;;;;4964555;28;92873;-66
2023/07/02 04:21:12;;;;;;;1.40;1.30;;;16.90;99.90;17.00;99609.00;;;;4968662;28;123203;-67
2023/07/02 04:23:38;;;;;;;2.35;1.13;;;16.90;99.90;17.00;99604.00;;;;4970823;28;104918;-66
2023/07/02 04:26:06;;;;;;;3.33;1.10;;;16.90;99.90;17.00;99609.00;;;;4968296;28;111565;-65
2023/07/02 04:28:32;;;;;;;1.30;1.20;;;16.90;99.90;17.00;99612.00;;;;4970371;28;109019;-66
2023/07/02 04:30:58;;;;;;;0.65;0.65;;;16.90;99.90;17.00;99619.00;;;;4972443;28;121700;-67
2023/07/02 04:33:23;;;;;;;1.52;1.15;;;16.90;99.90;17.00;99620.00;;;;4936217;28;94075;-66
2023/07/02 04:35:49;;;;;;;0.65;0.65;;;16.90;99.90;17.00;99630.00;;;;4964121;28;110735;-67
2023/07/02 04:38:16;;;;;;;1.00;0.93;;;16.90;99.90;17.10;99630.00;;;;4966449;28;93676;-66
2023/07/02 04:40:44;;;;;;;1.42;0.73;;;16.90;99.90;17.10;99630.00;;;;4950314;28;110915;-66
2023/07/02 04:43:10;;;;;;;1.08;0.98;;;17.00;99.90;17.10;99635.00;;;;4963613;28;97681;-67
2023/07/02 04:45:36;;;;;;;1.08;0.98;;;17.00;99.90;17.10;99643.00;;;;4967458;28;104485;-67
2023/07/02 04:48:03;;;;;;;1.48;1.23;;;17.00;99.90;17.10;99635.00;;;;4967228;28;93075;-67
2023/07/02 04:50:29;;;;;;;1.33;0.80;;;17.00;99.90;17.10;99641.00;;;;4968727;28;109207;-66
2023/07/02 04:52:55;;;;;;;1.25;1.00;;;17.00;99.90;17.20;99646.00;;;;4973706;28;115788;-67
2023/07/02 04:55:21;;;;;;;1.20;0.90;;;17.10;99.90;17.20;99648.00;;;;4970615;28;93243;-67
2023/07/02 04:57:46;;;;;;;2.15;0.95;;;17.10;99.90;17.20;99640.00;;;;4966501;28;109029;-66
2023/07/02 05:00:13;;;;;;;0.80;0.80;;;17.10;99.90;17.20;99647.00;;;;4968624;28;121827;-66
2023/07/02 05:02:39;;;;;;;0.85;0.50;;;17.10;99.90;17.20;99644.00;;;;4966208;28;94205;-65
2023/07/02 05:05:05;;;;;;;1.38;1.20;;;17.10;99.90;17.30;99646.00;;;;4971098;28;93680;-66
2023/07/02 05:07:30;;;;;;;1.17;0.75;;;17.10;99.90;17.30;99645.00;;;;4967617;28;93035;-67
2023/07/02 05:09:56;;;;;;;1.15;1.02;;;17.20;99.90;17.30;99640.00;;;;4970488;28;93191;-66
2023/07/02 05:12:23;;;;;;;0.73;0.73;;;17.20;99.90;17.30;99636.00;;;;4965253;28;122356;-66
2023/07/02 05:14:49;;;;;;;1.48;1.10;;;17.20;99.90;17.40;99642.00;;;;4965869;28;92043;-67
2023/07/02 05:17:14;;;;;;;1.55;1.30;;;17.20;99.90;17.40;99639.00;;;;4968433;28;110287;-66
2023/07/02 05:19:42;;;;;;;1.27;1.17;;;17.30;99.90;17.40;99640.00;;;;4969283;28;94151;-67
2023/07/02 05:22:09;;;;;;;1.17;0.77;;;17.30;99.90;17.40;99637.00;;;;4971021;28;94196;-66
2023/07/02 05:24:34;;;;;;;2.00;1.10;;;17.30;99.90;17.50;99646.00;;;;4968985;28;110404;-66
2023/07/02 05:27:00;;;;;;;1.58;1.13;;;17.30;99.90;17.50;99637.00;;;;4967718;28;93234;-66
2023/07/02 05:29:26;;;;;;;0.85;0.80;;;17.40;99.90;17.60;99641.00;;;;4966510;28;125032;-66
2023/07/02 05:31:51;;;;;;;1.13;1.05;;;17.20;99.90;17.60;99643.00;;;;4953375;28;121709;-66
2023/07/02 05:34:17;;;;;;;1.05;0.88;;;17.50;99.90;17.70;99647.00;;;;4967589;28;110301;-67
2023/07/02 05:36:43;;;;;;;1.75;1.02;;;17.50;99.90;17.70;99642.00;;;;4969014;28;93255;-67
2023/07/02 05:39:08;;;;;;;2.63;1.55;;;17.60;99.90;17.80;99634.00;;;;4966579;28;92720;-66
2023/07/02 05:41:34;;;;;;;0.98;0.70;;;17.60;99.90;17.90;99646.00;;;;4969818;28;121806;-66
2023/07/02 05:44:00;;;;;;;0.82;0.82;;;17.70;99.90;18.00;99645.00;;;;4970649;28;98791;-66
2023/07/02 05:46:26;;;;;;;1.50;1.00;;;17.80;99.90;18.00;99635.00;;;;4967415;28;94178;-66
2023/07/02 05:48:54;;;;;;;11.68;0.93;;;17.90;99.90;18.10;99641.00;;;;4967775;28;123422;-66
2023/07/02 05:51:24;;;;;;;1.27;0.85;;;18.00;99.90;18.20;99653.00;;;;4968410;28;93441;-66
2023/07/02 05:53:50;;;;;;;1.23;1.13;;;18.10;99.90;18.30;99652.00;;;;4965321;28;110219;-65
2023/07/02 05:56:16;;;;;;;3.63;1.00;;;18.20;99.90;18.50;99661.00;;;;4965525;28;92894;-65
2023/07/02 05:58:43;;;;;;;2.90;1.00;;;18.30;99.90;18.60;99659.00;;;;4967944;28;93840;-66
2023/07/02 06:01:08;;;;;;;0.82;0.80;;;18.40;99.90;18.70;99664.00;;;;4968656;28;111328;-65
2023/07/02 06:03:34;;;;;;;1.65;1.10;;;18.50;99.90;18.80;99662.00;;;;4966425;28;92146;-66
2023/07/02 06:06:00;;;;;;;1.38;0.85;;;18.60;99.90;18.90;99663.00;;;;4967718;28;100051;-67
2023/07/02 06:08:25;;;;;;;1.08;0.63;;;18.70;99.90;19.00;99668.00;;;;4963918;28;120571;-66
2023/07/02 06:10:54;;;;;;;1.25;0.70;;;18.80;99.90;19.10;99667.00;;;;4966527;28;113317;-66
2023/07/02 06:13:20;;;;;;;1.88;0.90;;;18.90;99.90;19.20;99672.00;;;;4963217;28;110482;-67
2023/07/02 06:15:46;;;;;;;1.88;0.98;;;19.00;99.90;19.30;99665.00;;;;4964947;28;108313;-66
2023/07/02 06:18:12;;;;;;;0.80;0.80;;;19.10;99.90;19.40;99683.00;;;;4967532;28;93534;-65
2023/07/02 06:20:38;;;;;;;1.38;1.02;;;19.20;99.90;19.50;99676.00;;;;4967127;28;93893;-65
2023/07/02 06:23:04;;;;;;;1.38;1.10;;;19.30;99.90;19.50;99683.00;;;;4965690;28;96776;-65
2023/07/02 06:25:30;;;;;;;1.45;0.80;;;19.30;99.90;19.50;99678.00;;;;4965436;28;92849;-66
2023/07/02 06:27:58;;;;;;;0.80;0.80;;;19.40;99.90;19.50;99684.00;;;;4964069;28;123210;-65
2023/07/02 06:30:26;;;;;;;0.73;0.70;;;19.40;99.90;19.50;99685.00;;;;4967740;28;93125;-66
2023/07/02 06:32:54;;;;;;;1.60;0.98;;;19.40;99.90;19.50;99680.00;;;;4948498;28;110264;-66
2023/07/02 06:35:19;;;;;;;0.52;0.52;;;19.30;99.90;19.40;99684.00;;;;4966403;28;95489;-66
2023/07/02 06:37:46;;;;;;;0.88;0.70;;;19.30;99.90;19.50;99682.00;;;;4959451;28;93219;-66
2023/07/02 06:40:12;;;;;;;1.15;0.95;;;19.30;99.90;19.60;99681.00;;;;4969845;28;97674;-66
2023/07/02 06:42:37;;;;;;;1.55;0.95;;;19.40;99.90;19.90;99687.00;;;;4968327;28;92972;-65
2023/07/02 06:45:04;;;;;;;1.05;0.93;;;19.60;99.90;20.20;99690.00;;;;4967810;28;93067;-66
2023/07/02 06:47:30;;;;;;;0.70;0.68;;;19.90;99.90;20.40;99700.00;;;;4965523;28;106863;-64
2023/07/02 06:49:56;;;;;;;0.60;0.60;;;20.10;99.90;20.70;99691.00;;;;4966606;28;121663;-65
2023/07/02 06:52:21;;;;;;;1.40;1.00;;;20.40;99.90;20.90;99694.00;;;;4967552;28;92050;-66
2023/07/02 06:54:47;;;;;;;0.85;0.73;;;20.60;99.90;21.10;99682.00;;;;4968657;28;108217;-65
2023/07/02 06:57:13;;;;;;;0.40;0.40;;;20.80;99.90;21.20;99688.00;;;;4965089;28;122875;-66
2023/07/02 06:59:39;;;;;;;1.10;0.80;;;20.80;99.90;21.40;99690.00;;;;4963836;28;120969;-66
2023/07/02 07:02:06;;;;;;;1.00;0.60;;;21.20;99.90;21.60;99698.00;;;;4965201;28;93104;-66
2023/07/02 07:04:31;;;;;;;0.77;0.77;;;20.60;99.90;21.70;99693.00;;;;4965834;28;94299;-65
2023/07/02 07:06:57;;;;;;;1.35;1.08;;;21.50;99.90;21.80;99692.00;;;;4967684;28;122528;-66
2023/07/02 07:09:23;;;;;;;1.25;0.70;;;21.60;99.90;21.90;99691.00;;;;4964765;28;123044;-66
2023/07/02 07:11:48;;;;;;;0.55;0.55;;;22.20;99.90;22.00;99686.00;;;;4968399;28;92765;-66
2023/07/02 07:14:14;;;;;;;1.40;1.05;;;21.80;99.30;22.00;99695.00;;;;4968064;28;109765;-66
2023/07/02 07:16:40;;;;;;;0.80;0.68;;;21.90;99.00;22.20;99695.00;;;;4945712;28;121786;-66
2023/07/02 07:19:07;;;;;;;0.50;0.50;;;22.00;98.60;22.40;99694.00;;;;4965084;28;93076;-65
2023/07/02 07:21:34;;;;;;;1.17;1.08;;;22.20;98.60;22.60;99692.00;;;;4965040;28;93071;-65
2023/07/02 07:23:59;;;;;;;5.57;0.80;;;22.40;97.10;22.80;99703.00;;;;4967319;28;99910;-66
2023/07/02 07:26:25;;;;;;;0.82;0.82;;;22.50;96.90;23.00;99706.00;;;;4968218;28;103276;-66
2023/07/02 07:28:51;;;;;;;1.15;0.85;;;22.70;95.20;23.10;99697.00;;;;4969660;28;121395;-66
2023/07/02 07:31:16;;;;;;;0.75;0.75;;;22.90;92.70;23.30;99701.00;;;;4964182;28;109085;-67
2023/07/02 07:33:42;;;;;;;1.00;0.75;;;23.00;92.80;23.50;99704.00;;;;4965135;28;107572;-66
2023/07/02 07:36:08;;;;;;;0.85;0.85;;;23.20;92.80;23.70;99698.00;;;;4962386;28;122430;-66
2023/07/02 07:38:33;;;;;;;1.10;0.90;;;23.50;91.60;23.90;99702.00;;;;4963686;28;122496;-66
2023/07/02 07:40:59;;;;;;;2.10;1.02;;;23.60;90.10;23.80;99705.00;;;;4968207;28;111642;-66
2023/07/02 07:43:24;;;;;;;1.08;1.02;;;23.60;86.10;23.60;99708.00;;;;4964446;28;108913;-66
2023/07/02 07:45:50;;;;;;;2.55;0.95;;;23.50;84.30;23.40;99702.00;;;;4964531;28;122485;-65
2023/07/02 07:48:16;;;;;;;1.15;0.57;;;23.30;85.60;23.30;99708.00;;;;4964933;28;93882;-66
2023/07/02 07:50:41;;;;;;;0.77;0.60;;;23.20;86.00;23.20;99708.00;;;;4966614;28;93117;-65
2023/07/02 07:53:07;;;;;;;0.40;0.40;;;23.10;85.30;23.10;99706.00;;;;4964092;28;108172;-66
2023/07/02 07:55:33;;;;;;;0.95;0.52;;;23.00;84.70;23.10;99696.00;;;;4963543;28;121669;-67
2023/07/02 07:57:58;;;;;;;0.40;0.35;;;22.90;82.90;23.10;99708.00;;;;4961021;28;122853;-66
2023/07/02 08:00:25;;;;;;;0.82;0.80;;;22.90;81.60;23.20;99707.00;;;;4960945;28;109328;-65
2023/07/02 08:02:55;;;;;;;0.43;0.43;;;23.00;80.50;23.30;99703.00;;;;4967209;28;92894;-65
2023/07/02 08:05:22;;;;;;;0.98;0.88;;;23.10;80.60;23.40;99703.00;;;;4965208;28;93515;-65
2023/07/02 08:07:47;;;;;;;1.30;0.73;;;23.20;79.00;23.70;99697.00;;;;4965122;28;93817;-65
2023/07/02 08:10:13;;;;;;;2.50;0.80;;;23.40;78.50;23.80;99693.00;;;;4963304;28;111448;-65
2023/07/02 08:12:39;;;;;;;0.60;0.60;;;23.50;71.40;23.70;99706.00;;;;4966435;28;94047;-65
2023/07/02 08:15:05;;;;;;;1.85;0.50;;;23.50;71.00;23.70;99707.00;;;;4965569;28;123302;-65
2023/07/02 08:17:31;;;;;;;0.82;0.70;;;23.60;69.90;23.90;99702.00;;;;4963716;28;94588;-65
2023/07/02 08:19:57;;;;;;;0.52;0.52;;;23.70;70.80;24.10;99706.00;;;;4966621;28;93842;-66
2023/07/02 08:22:23;;;;;;;0.47;0.47;;;23.90;70.60;24.20;99697.00;;;;4945309;28;92984;-65
2023/07/02 08:24:49;;;;;;;0.63;0.63;;;24.00;68.70;24.30;99701.00;;;;4966711;28;120893;-66
2023/07/02 08:27:18;;;;;;;0.35;0.35;;;24.10;68.50;24.50;99711.00;;;;4970439;28;93350;-64
2023/07/02 08:29:46;;;;;;;1.05;0.70;;;24.30;68.90;24.70;99705.00;;;;4966234;28;92127;-66
2023/07/02 08:32:11;;;;;;;1.35;0.77;;;24.40;63.90;24.60;99711.00;;;;4964875;28;92939;-67
2023/07/02 08:34:37;;;;;;;1.58;0.93;;;24.50;63.90;24.70;99721.00;;;;4964663;28;93156;-65
2023/07/02 08:37:03;;;;;;;2.30;1.08;;;24.50;63.70;24.70;99717.00;;;;4964343;28;121307;-66
2023/07/02 08:39:29;;;;;;;1.25;0.80;;;24.60;62.40;24.70;99726.00;;;;4963467;28;99980;-67
2023/07/02 08:41:54;;;;;;;2.33;0.55;;;24.60;62.00;24.80;99726.00;;;;4964658;28;110015;-66
2023/07/02 08:44:22;;;;;;;0.75;0.75;;;24.60;61.60;24.90;99727.00;;;;4962824;28;123640;-66
2023/07/02 08:46:53;;;;;;;0.73;0.73;;;24.70;62.10;25.00;99716.00;;;;4965740;28;93041;-65
2023/07/02 08:49:19;;;;;;;0.85;0.85;;;24.80;62.50;25.00;99716.00;;;;4962229;28;92864;-66
2023/07/02 08:51:48;;;;;;;0.75;0.60;;;24.90;61.10;24.90;99731.00;;;;4965392;28;92923;-66
2023/07/02 08:54:14;;;;;;;0.77;0.63;;;24.80;59.70;24.60;99724.00;;;;4965576;28;92347;-66
2023/07/02 08:56:40;;;;;;;1.02;0.80;;;24.60;59.30;24.30;99728.00;;;;4966241;28;92981;-66
2023/07/02 08:59:08;;;;;;;0.57;0.50;;;24.30;59.50;24.10;99732.00;;;;4968318;28;93083;-66
2023/07/02 09:01:47;;;;;;;0.43;0.43;;;24.00;61.00;24.10;99731.00;;;;4967542;28;94182;-66
2023/07/02 09:04:21;;;;;;;1.05;0.52;;;24.00;62.00;24.20;99724.00;;;;4972306;28;93035;-65
2023/07/02 09:06:48;;;;;;;0.47;0.47;;;24.00;62.10;24.40;99742.00;;;;4968483;28;94077;-67
2023/07/02 09:09:14;;;;;;;1.02;0.93;;;24.10;62.60;24.60;99729.00;;;;4967514;28;92942;-67
2023/07/02 09:11:50;;;;;;;1.63;0.63;;;24.30;61.60;24.80;99739.00;;;;4966336;28;92709;-67
2023/07/02 09:14:30;;;;;;;0.82;0.77;;;24.50;61.20;24.90;99738.00;;;;4953078;28;93365;-67
2023/07/02 09:17:08;;;;;;;1.17;0.75;;;24.60;60.60;25.00;99734.00;;;;4951893;28;92945;-67
2023/07/02 09:19:35;;;;;;;3.20;0.90;;;24.70;59.40;25.10;99735.00;;;;4967313;28;92454;-66
2023/07/02 09:22:02;;;;;;;1.17;0.95;;;24.80;59.40;25.20;99717.00;;;;4959891;28;93868;-66
2023/07/02 09:24:30;;;;;;;1.00;0.63;;;24.90;57.30;25.10;99733.00;;;;4965555;28;93299;-67
2023/07/02 09:27:01;;;;;;;0.80;0.80;;;24.90;57.90;25.10;99736.00;;;;4969094;28;93985;-67
2023/07/02 09:29:33;;;;;;;1.45;0.68;;;24.90;59.10;25.20;99740.00;;;;4972178;28;93276;-67
2023/07/02 09:32:07;;;;;;;0.52;0.50;;;25.00;58.90;25.20;99736.00;;;;4970182;28;94480;-67
2023/07/02 09:34:35;;;;;;;1.17;0.63;;;25.00;59.60;25.20;99749.00;;;;4955251;28;94058;-67
2023/07/02 09:37:10;;;;;;;1.90;0.95;;;25.00;59.30;25.10;99745.00;;;;4963605;28;92906;-67
2023/07/02 09:39:36;;;;;;;0.60;0.60;;;24.90;58.30;24.80;99755.00;;;;4970138;28;93009;-67
2023/07/02 09:42:09;;;;;;;1.05;0.70;;;24.70;58.60;24.60;99761.00;;;;4955273;28;93044;-67
2023/07/02 09:44:35;;;;;;;0.82;0.73;;;24.50;59.10;24.30;99755.00;;;;4955426;28;92642;-66
2023/07/02 09:47:03;;;;;;;1.08;0.93;;;24.20;59.70;24.10;99776.00;;;;4968595;28;92837;-67
2023/07/02 09:49:38;;;;;;;0.65;0.65;;;24.00;60.10;23.80;99769.00;;;;4965873;28;92736;-67
2023/07/02 09:52:07;;;;;;;1.33;0.88;;;23.70;61.70;23.50;99777.00;;;;4944300;28;100155;-66
2023/07/02 09:54:33;;;;;;;1.73;1.00;;;23.50;62.50;23.30;99771.00;;;;4968995;28;93164;-67
2023/07/02 09:57:00;;;;;;;1.25;1.10;;;23.20;63.30;23.00;99771.00;;;;4968279;28;94105;-66
2023/07/02 09:59:26;;;;;;;1.02;0.77;;;23.00;64.50;22.90;99765.00;;;;4949983;28;93137;-66
2023/07/02 10:01:52;;;;;;;1.88;1.10;;;22.80;65.40;22.80;99765.00;;;;4967249;28;93108;-67
2023/07/02 10:04:20;;;;;;;1.63;1.05;;;22.70;67.10;22.60;99778.00;;;;4967782;28;94237;-67
2023/07/02 10:06:52;;;;;;;2.78;0.98;;;22.50;67.80;22.50;99773.00;;;;4968084;28;92851;-67
2023/07/02 10:09:18;;;;;;;1.30;0.80;;;22.40;68.30;22.50;99766.00;;;;4966631;28;92202;-67
2023/07/02 10:11:45;;;;;;;2.72;1.00;;;22.30;68.90;22.60;99779.00;;;;4966855;28;95887;-69
2023/07/02 10:14:11;;;;;;;0.63;0.63;;;22.30;69.60;22.70;99779.00;;;;4954981;28;93130;-66
2023/07/02 10:16:53;;;;;;;1.65;0.70;;;22.40;70.00;22.90;99774.00;;;;4971110;28;94164;-66
2023/07/02 10:19:19;;;;;;;1.02;0.93;;;22.60;70.30;23.10;99774.00;;;;4967408;28;93079;-67
2023/07/02 10:21:46;;;;;;;3.80;1.25;;;22.60;69.90;23.20;99772.00;;;;4965944;28;93002;-67
2023/07/02 10:24:16;;;;;;;0.45;0.40;;;22.80;69.80;23.20;99781.00;;;;4964084;28;93568;-67
2023/07/02 10:26:54;;;;;;;1.08;0.80;;;22.90;69.80;23.20;99774.00;;;;4967621;28;93892;-67
2023/07/02 10:29:22;;;;;;;1.55;0.80;;;23.00;69.90;23.30;99777.00;;;;4965825;28;95046;-67
2023/07/02 10:31:50;;;;;;;0.75;0.75;;;23.00;70.10;23.30;99773.00;;;;4968555;28;93038;-67
2023/07/02 10:34:16;;;;;;;1.48;0.70;;;23.00;69.20;23.20;99776.00;;;;4965326;28;93343;-66
2023/07/02 10:36:42;;;;;;;0.90;0.60;;;23.00;69.00;23.20;99786.00;;;;4965780;28;93077;-67
2023/07/02 10:39:08;;;;;;;1.40;1.00;;;22.90;69.70;23.20;99783.00;;;;4967632;28;110560;-67
2023/07/02 10:41:34;;;;;;;0.50;0.50;;;22.90;69.90;23.20;99780.00;;;;4964723;28;93704;-66
2023/07/02 10:44:10;;;;;;;0.73;0.73;;;23.00;69.80;23.20;99785.00;;;;4967197;28;93750;-65
2023/07/02 10:46:46;;;;;;;0.85;0.82;;;23.00;68.10;23.10;99779.00;;;;4938196;28;94895;-66
2023/07/02 10:49:13;;;;;;;0.88;0.77;;;22.90;67.60;23.10;99779.00;;;;4964536;28;93100;-66
2023/07/02 10:51:39;;;;;;;0.50;0.50;;;22.90;67.30;23.00;99779.00;;;;4967930;28;93215;-68